sensor_id;sensor_type;location;lat;lon;timestamp;P1;durP1;ratioP1;P2;durP2;ratioP2
16391;SDS011;8305;-33.882;151.134;2023-04-03T00:01:43;4.45;;;0.80;;
16391;SDS011;8305;-33.882;151.134;2023-04-03T00:04:14;4.32;;;1.02;;
16391;SDS011;8305;-33.882;151.134;2023-04-03T00:06:47;4.28;;;0.90;;
16391;SDS011;8305;-33.882;151.134;2023-04-03T00:09:18;2.08;;;0.50;;
16391;SDS011;8305;-33.882;151.134;2023-04-03T00:11:49;2.13;;;0.63;;
16391;SDS011;8305;-33.882;151.134;2023-04-03T00:14:20;4.03;;;0.70;;
16391;SDS011;8305;-33.882;151.134;2023-04-03T00:16:51;4.65;;;0.65;;
16391;SDS011;8305;-33.882;151.134;2023-04-03T00:19:22;5.20;;;1.08;;
16391;SDS011;8305;-33.882;151.134;2023-04-03T00:21:55;2.72;;;0.70;;
16391;SDS011;8305;-33.882;151.134;2023-04-03T00:24:26;4.07;;;1.00;;
16391;SDS011;8305;-33.882;151.134;2023-04-03T00:26:58;6.53;;;1.75;;
16391;SDS011;8305;-33.882;151.134;2023-04-03T00:29:29;3.50;;;1.60;;
16391;SDS011;8305;-33.882;151.134;2023-04-03T00:32:00;6.28;;;1.92;;
16391;SDS011;8305;-33.882;151.134;2023-04-03T00:34:31;7.05;;;2.08;;
16391;SDS011;8305;-33.882;151.134;2023-04-03T00:37:04;7.25;;;2.20;;
16391;SDS011;8305;-33.882;151.134;2023-04-03T00:39:35;5.60;;;1.58;;
16391;SDS011;8305;-33.882;151.134;2023-04-03T00:42:06;5.60;;;1.80;;
16391;SDS011;8305;-33.882;151.134;2023-04-03T00:47:43;19.60;;;6.15;;
16391;SDS011;8305;-33.882;151.134;2023-04-03T00:50:14;5.03;;;2.13;;
16391;SDS011;8305;-33.882;151.134;2023-04-03T00:52:47;8.32;;;2.20;;
16391;SDS011;8305;-33.882;151.134;2023-04-03T00:55:19;5.22;;;1.75;;
16391;SDS011;8305;-33.882;151.134;2023-04-03T00:57:51;5.40;;;1.52;;
16391;SDS011;8305;-33.882;151.134;2023-04-03T01:00:24;5.82;;;1.70;;
16391;SDS011;8305;-33.882;151.134;2023-04-03T01:02:55;3.42;;;1.30;;
16391;SDS011;8305;-33.882;151.134;2023-04-03T01:05:26;2.97;;;1.10;;
16391;SDS011;8305;-33.882;151.134;2023-04-03T01:07:59;5.70;;;1.40;;
16391;SDS011;8305;-33.882;151.134;2023-04-03T01:10:31;5.47;;;1.65;;
16391;SDS011;8305;-33.882;151.134;2023-04-03T01:13:02;5.07;;;1.20;;
16391;SDS011;8305;-33.882;151.134;2023-04-03T01:15:51;3.80;;;1.10;;
16391;SDS011;8305;-33.882;151.134;2023-04-03T01:18:22;3.80;;;0.73;;
16391;SDS011;8305;-33.882;151.134;2023-04-03T01:23:57;6.13;;;1.10;;
16391;SDS011;8305;-33.882;151.134;2023-04-03T01:26:37;5.65;;;1.10;;
16391;SDS011;8305;-33.882;151.134;2023-04-03T01:29:10;4.63;;;1.05;;
16391;SDS011;8305;-33.882;151.134;2023-04-03T01:31:46;2.15;;;0.90;;
16391;SDS011;8305;-33.882;151.134;2023-04-03T01:34:21;4.78;;;1.10;;
16391;SDS011;8305;-33.882;151.134;2023-04-03T01:36:52;4.38;;;0.93;;
16391;SDS011;8305;-33.882;151.134;2023-04-03T01:39:23;3.58;;;1.00;;
16391;SDS011;8305;-33.882;151.134;2023-04-03T01:41:55;5.03;;;1.05;;
16391;SDS011;8305;-33.882;151.134;2023-04-03T01:44:26;6.25;;;1.20;;
16391;SDS011;8305;-33.882;151.134;2023-04-03T01:46:59;2.95;;;0.70;;
16391;SDS011;8305;-33.882;151.134;2023-04-03T01:49:30;2.78;;;0.90;;
16391;SDS011;8305;-33.882;151.134;2023-04-03T01:52:01;6.70;;;1.00;;
16391;SDS011;8305;-33.882;151.134;2023-04-03T01:54:32;5.10;;;1.15;;
16391;SDS011;8305;-33.882;151.134;2023-04-03T01:57:04;4.93;;;0.88;;
16391;SDS011;8305;-33.882;151.134;2023-04-03T01:59:35;4.88;;;1.05;;
16391;SDS011;8305;-33.882;151.134;2023-04-03T02:02:08;4.28;;;1.20;;
16391;SDS011;8305;-33.882;151.134;2023-04-03T02:04:40;5.18;;;0.95;;
16391;SDS011;8305;-33.882;151.134;2023-04-03T02:07:11;6.00;;;1.20;;
16391;SDS011;8305;-33.882;151.134;2023-04-03T02:09:42;4.45;;;1.17;;
16391;SDS011;8305;-33.882;151.134;2023-04-03T02:12:14;5.22;;;1.00;;
16391;SDS011;8305;-33.882;151.134;2023-04-03T02:14:45;5.13;;;1.42;;
16391;SDS011;8305;-33.882;151.134;2023-04-03T02:17:20;7.32;;;0.93;;
16391;SDS011;8305;-33.882;151.134;2023-04-03T02:19:51;5.05;;;0.93;;
16391;SDS011;8305;-33.882;151.134;2023-04-03T02:22:22;6.50;;;0.80;;
16391;SDS011;8305;-33.882;151.134;2023-04-03T02:24:53;2.85;;;0.77;;
16391;SDS011;8305;-33.882;151.134;2023-04-03T02:27:24;4.43;;;0.80;;
16391;SDS011;8305;-33.882;151.134;2023-04-03T02:29:55;6.25;;;1.27;;
16391;SDS011;8305;-33.882;151.134;2023-04-03T02:32:28;4.78;;;0.75;;
16391;SDS011;8305;-33.882;151.134;2023-04-03T02:34:59;4.93;;;0.98;;
16391;SDS011;8305;-33.882;151.134;2023-04-03T02:37:30;5.57;;;0.95;;
16391;SDS011;8305;-33.882;151.134;2023-04-03T02:40:02;3.30;;;0.80;;
16391;SDS011;8305;-33.882;151.134;2023-04-03T02:42:34;5.05;;;0.90;;
16391;SDS011;8305;-33.882;151.134;2023-04-03T02:45:05;4.65;;;0.93;;
16391;SDS011;8305;-33.882;151.134;2023-04-03T02:47:40;5.20;;;0.90;;
16391;SDS011;8305;-33.882;151.134;2023-04-03T02:50:11;5.15;;;1.17;;
16391;SDS011;8305;-33.882;151.134;2023-04-03T02:52:42;5.15;;;1.10;;
16391;SDS011;8305;-33.882;151.134;2023-04-03T02:55:13;5.72;;;0.70;;
16391;SDS011;8305;-33.882;151.134;2023-04-03T02:57:45;4.45;;;0.80;;
16391;SDS011;8305;-33.882;151.134;2023-04-03T03:00:16;4.57;;;0.90;;
16391;SDS011;8305;-33.882;151.134;2023-04-03T03:02:50;6.38;;;0.90;;
16391;SDS011;8305;-33.882;151.134;2023-04-03T03:05:21;5.20;;;0.70;;
16391;SDS011;8305;-33.882;151.134;2023-04-03T03:07:53;3.63;;;0.60;;
16391;SDS011;8305;-33.882;151.134;2023-04-03T03:10:24;2.88;;;0.60;;
16391;SDS011;8305;-33.882;151.134;2023-04-03T03:12:56;3.90;;;0.80;;
16391;SDS011;8305;-33.882;151.134;2023-04-03T03:15:27;3.05;;;0.93;;
16391;SDS011;8305;-33.882;151.134;2023-04-03T03:18:00;2.33;;;0.55;;
16391;SDS011;8305;-33.882;151.134;2023-04-03T03:20:31;3.85;;;0.82;;
16391;SDS011;8305;-33.882;151.134;2023-04-03T03:23:02;3.33;;;0.93;;
16391;SDS011;8305;-33.882;151.134;2023-04-03T03:25:33;6.47;;;0.90;;
16391;SDS011;8305;-33.882;151.134;2023-04-03T03:28:08;3.38;;;0.80;;
16391;SDS011;8305;-33.882;151.134;2023-04-03T03:30:39;7.55;;;0.90;;
16391;SDS011;8305;-33.882;151.134;2023-04-03T03:33:12;4.40;;;0.82;;
16391;SDS011;8305;-33.882;151.134;2023-04-03T03:35:44;4.95;;;0.90;;
16391;SDS011;8305;-33.882;151.134;2023-04-03T03:38:15;5.30;;;0.70;;
16391;SDS011;8305;-33.882;151.134;2023-04-03T03:40:47;5.30;;;0.77;;
16391;SDS011;8305;-33.882;151.134;2023-04-03T03:43:19;4.53;;;1.02;;
16391;SDS011;8305;-33.882;151.134;2023-04-03T03:45:51;4.35;;;0.85;;
16391;SDS011;8305;-33.882;151.134;2023-04-03T03:48:26;2.75;;;0.70;;
16391;SDS011;8305;-33.882;151.134;2023-04-03T03:50:57;5.15;;;0.85;;
16391;SDS011;8305;-33.882;151.134;2023-04-03T03:53:28;7.75;;;1.00;;
16391;SDS011;8305;-33.882;151.134;2023-04-03T03:55:59;4.57;;;0.85;;
16391;SDS011;8305;-33.882;151.134;2023-04-03T03:58:30;3.88;;;0.80;;
16391;SDS011;8305;-33.882;151.134;2023-04-03T04:01:02;3.47;;;0.70;;
16391;SDS011;8305;-33.882;151.134;2023-04-03T04:03:36;5.97;;;1.20;;
16391;SDS011;8305;-33.882;151.134;2023-04-03T04:06:07;5.63;;;1.00;;
16391;SDS011;8305;-33.882;151.134;2023-04-03T04:08:38;9.30;;;1.20;;
16391;SDS011;8305;-33.882;151.134;2023-04-03T04:11:09;5.03;;;0.95;;
16391;SDS011;8305;-33.882;151.134;2023-04-03T04:13:40;5.60;;;0.90;;
16391;SDS011;8305;-33.882;151.134;2023-04-03T04:16:11;3.40;;;0.80;;
16391;SDS011;8305;-33.882;151.134;2023-04-03T04:18:44;5.22;;;1.00;;
16391;SDS011;8305;-33.882;151.134;2023-04-03T04:21:15;6.82;;;0.80;;
16391;SDS011;8305;-33.882;151.134;2023-04-03T04:23:47;4.72;;;0.90;;
16391;SDS011;8305;-33.882;151.134;2023-04-03T04:26:18;5.18;;;0.60;;
16391;SDS011;8305;-33.882;151.134;2023-04-03T04:28:50;7.57;;;0.80;;
16391;SDS011;8305;-33.882;151.134;2023-04-03T04:31:21;4.70;;;0.75;;
16391;SDS011;8305;-33.882;151.134;2023-04-03T04:33:56;6.80;;;0.82;;
16391;SDS011;8305;-33.882;151.134;2023-04-03T04:36:27;7.38;;;0.80;;
16391;SDS011;8305;-33.882;151.134;2023-04-03T04:38:58;4.75;;;0.65;;
16391;SDS011;8305;-33.882;151.134;2023-04-03T04:41:29;3.65;;;0.73;;
16391;SDS011;8305;-33.882;151.134;2023-04-03T04:44:00;6.15;;;0.63;;
16391;SDS011;8305;-33.882;151.134;2023-04-03T04:46:32;6.30;;;1.63;;
16391;SDS011;8305;-33.882;151.134;2023-04-03T04:49:05;4.70;;;0.80;;
16391;SDS011;8305;-33.882;151.134;2023-04-03T04:51:36;3.70;;;0.80;;
16391;SDS011;8305;-33.882;151.134;2023-04-03T04:54:07;2.78;;;0.70;;
16391;SDS011;8305;-33.882;151.134;2023-04-03T04:56:38;4.65;;;0.90;;
16391;SDS011;8305;-33.882;151.134;2023-04-03T04:59:09;4.97;;;1.08;;
16391;SDS011;8305;-33.882;151.134;2023-04-03T05:01:40;5.43;;;0.90;;
16391;SDS011;8305;-33.882;151.134;2023-04-03T05:04:14;6.88;;;0.80;;
16391;SDS011;8305;-33.882;151.134;2023-04-03T05:06:46;5.55;;;0.90;;
16391;SDS011;8305;-33.882;151.134;2023-04-03T05:09:17;6.25;;;0.90;;
16391;SDS011;8305;-33.882;151.134;2023-04-03T05:11:48;4.15;;;0.70;;
16391;SDS011;8305;-33.882;151.134;2023-04-03T05:14:19;6.82;;;0.80;;
16391;SDS011;8305;-33.882;151.134;2023-04-03T05:16:50;4.40;;;0.88;;
16391;SDS011;8305;-33.882;151.134;2023-04-03T05:19:24;4.72;;;0.80;;
16391;SDS011;8305;-33.882;151.134;2023-04-03T05:21:55;4.63;;;0.68;;
16391;SDS011;8305;-33.882;151.134;2023-04-03T05:24:26;2.35;;;0.57;;
16391;SDS011;8305;-33.882;151.134;2023-04-03T05:26:57;5.47;;;0.82;;
16391;SDS011;8305;-33.882;151.134;2023-04-03T05:29:28;5.05;;;0.77;;
16391;SDS011;8305;-33.882;151.134;2023-04-03T05:31:59;6.28;;;0.95;;
16391;SDS011;8305;-33.882;151.134;2023-04-03T05:34:32;5.13;;;0.85;;
16391;SDS011;8305;-33.882;151.134;2023-04-03T05:37:03;5.45;;;0.82;;
16391;SDS011;8305;-33.882;151.134;2023-04-03T05:39:35;8.25;;;1.00;;
16391;SDS011;8305;-33.882;151.134;2023-04-03T05:42:07;4.35;;;0.73;;
16391;SDS011;8305;-33.882;151.134;2023-04-03T05:44:38;6.88;;;0.82;;
16391;SDS011;8305;-33.882;151.134;2023-04-03T05:47:09;3.92;;;0.70;;
16391;SDS011;8305;-33.882;151.134;2023-04-03T05:49:42;2.80;;;0.60;;
16391;SDS011;8305;-33.882;151.134;2023-04-03T05:52:17;8.85;;;1.10;;
16391;SDS011;8305;-33.882;151.134;2023-04-03T05:54:50;1.92;;;0.73;;
16391;SDS011;8305;-33.882;151.134;2023-04-03T05:57:21;4.35;;;0.73;;
16391;SDS011;8305;-33.882;151.134;2023-04-03T05:59:53;3.25;;;0.60;;
16391;SDS011;8305;-33.882;151.134;2023-04-03T06:02:24;7.75;;;1.38;;
16391;SDS011;8305;-33.882;151.134;2023-04-03T06:04:57;4.53;;;0.77;;
16391;SDS011;8305;-33.882;151.134;2023-04-03T06:07:28;8.02;;;1.08;;
16391;SDS011;8305;-33.882;151.134;2023-04-03T06:09:59;4.28;;;0.70;;
16391;SDS011;8305;-33.882;151.134;2023-04-03T06:12:31;4.93;;;0.70;;
16391;SDS011;8305;-33.882;151.134;2023-04-03T06:15:02;8.00;;;1.00;;
16391;SDS011;8305;-33.882;151.134;2023-04-03T06:17:34;5.28;;;0.73;;
16391;SDS011;8305;-33.882;151.134;2023-04-03T06:20:08;8.15;;;0.80;;
16391;SDS011;8305;-33.882;151.134;2023-04-03T06:22:39;5.95;;;0.85;;
16391;SDS011;8305;-33.882;151.134;2023-04-03T06:25:10;5.15;;;0.77;;
16391;SDS011;8305;-33.882;151.134;2023-04-03T06:27:43;3.60;;;0.85;;
16391;SDS011;8305;-33.882;151.134;2023-04-03T06:30:16;7.35;;;0.98;;
16391;SDS011;8305;-33.882;151.134;2023-04-03T06:32:48;4.10;;;0.70;;
16391;SDS011;8305;-33.882;151.134;2023-04-03T06:35:21;3.63;;;0.70;;
16391;SDS011;8305;-33.882;151.134;2023-04-03T06:37:53;6.65;;;0.80;;
16391;SDS011;8305;-33.882;151.134;2023-04-03T06:40:24;5.95;;;1.00;;
16391;SDS011;8305;-33.882;151.134;2023-04-03T06:42:55;5.32;;;0.85;;
16391;SDS011;8305;-33.882;151.134;2023-04-03T06:45:27;4.55;;;0.90;;
16391;SDS011;8305;-33.882;151.134;2023-04-03T06:47:58;7.30;;;1.30;;
16391;SDS011;8305;-33.882;151.134;2023-04-03T06:50:31;5.22;;;0.80;;
16391;SDS011;8305;-33.882;151.134;2023-04-03T06:53:02;7.18;;;0.93;;
16391;SDS011;8305;-33.882;151.134;2023-04-03T06:55:33;5.43;;;0.82;;
16391;SDS011;8305;-33.882;151.134;2023-04-03T06:58:04;6.68;;;1.13;;
16391;SDS011;8305;-33.882;151.134;2023-04-03T07:00:35;5.53;;;0.73;;
16391;SDS011;8305;-33.882;151.134;2023-04-03T07:03:06;3.22;;;0.77;;
16391;SDS011;8305;-33.882;151.134;2023-04-03T07:05:39;5.50;;;0.90;;
16391;SDS011;8305;-33.882;151.134;2023-04-03T07:08:11;6.45;;;1.27;;
16391;SDS011;8305;-33.882;151.134;2023-04-03T07:10:42;7.93;;;1.10;;
16391;SDS011;8305;-33.882;151.134;2023-04-03T07:13:13;3.25;;;0.70;;
16391;SDS011;8305;-33.882;151.134;2023-04-03T07:15:44;7.47;;;0.73;;
16391;SDS011;8305;-33.882;151.134;2023-04-03T07:18:16;5.28;;;0.95;;
16391;SDS011;8305;-33.882;151.134;2023-04-03T07:20:49;6.20;;;0.80;;
16391;SDS011;8305;-33.882;151.134;2023-04-03T07:23:21;4.97;;;1.15;;
16391;SDS011;8305;-33.882;151.134;2023-04-03T07:25:52;4.43;;;0.88;;
16391;SDS011;8305;-33.882;151.134;2023-04-03T07:28:24;7.18;;;1.13;;
16391;SDS011;8305;-33.882;151.134;2023-04-03T07:30:59;6.00;;;1.33;;
16391;SDS011;8305;-33.882;151.134;2023-04-03T07:33:34;6.40;;;1.30;;
16391;SDS011;8305;-33.882;151.134;2023-04-03T07:36:09;7.65;;;1.13;;
16391;SDS011;8305;-33.882;151.134;2023-04-03T07:38:43;6.20;;;1.05;;
16391;SDS011;8305;-33.882;151.134;2023-04-03T07:41:14;5.53;;;1.45;;
16391;SDS011;8305;-33.882;151.134;2023-04-03T07:43:48;5.53;;;1.35;;
16391;SDS011;8305;-33.882;151.134;2023-04-03T07:46:19;4.13;;;1.25;;
16391;SDS011;8305;-33.882;151.134;2023-04-03T07:48:50;7.78;;;1.45;;
16391;SDS011;8305;-33.882;151.134;2023-04-03T07:51:23;6.45;;;1.40;;
16391;SDS011;8305;-33.882;151.134;2023-04-03T07:53:56;4.60;;;1.10;;
16391;SDS011;8305;-33.882;151.134;2023-04-03T07:56:27;9.27;;;1.45;;
16391;SDS011;8305;-33.882;151.134;2023-04-03T07:58:58;5.57;;;1.20;;
16391;SDS011;8305;-33.882;151.134;2023-04-03T08:01:31;4.50;;;1.05;;
16391;SDS011;8305;-33.882;151.134;2023-04-03T08:04:02;7.30;;;1.60;;
16391;SDS011;8305;-33.882;151.134;2023-04-03T08:06:35;5.63;;;1.50;;
16391;SDS011;8305;-33.882;151.134;2023-04-03T08:09:06;4.10;;;1.20;;
16391;SDS011;8305;-33.882;151.134;2023-04-03T08:11:38;7.55;;;1.50;;
16391;SDS011;8305;-33.882;151.134;2023-04-03T08:14:10;7.75;;;1.90;;
16391;SDS011;8305;-33.882;151.134;2023-04-03T08:16:42;5.20;;;1.33;;
16391;SDS011;8305;-33.882;151.134;2023-04-03T08:19:14;4.43;;;1.40;;
16391;SDS011;8305;-33.882;151.134;2023-04-03T08:21:47;4.90;;;1.40;;
16391;SDS011;8305;-33.882;151.134;2023-04-03T08:24:18;7.63;;;1.67;;
16391;SDS011;8305;-33.882;151.134;2023-04-03T08:26:50;6.82;;;1.40;;
16391;SDS011;8305;-33.882;151.134;2023-04-03T08:29:21;5.43;;;1.20;;
16391;SDS011;8305;-33.882;151.134;2023-04-03T08:31:55;5.72;;;1.17;;
16391;SDS011;8305;-33.882;151.134;2023-04-03T08:34:26;4.28;;;1.17;;
16391;SDS011;8305;-33.882;151.134;2023-04-03T08:37:00;6.60;;;1.50;;
16391;SDS011;8305;-33.882;151.134;2023-04-03T08:39:32;4.63;;;1.30;;
16391;SDS011;8305;-33.882;151.134;2023-04-03T08:42:05;6.35;;;1.48;;
16391;SDS011;8305;-33.882;151.134;2023-04-03T08:44:44;7.60;;;1.40;;
16391;SDS011;8305;-33.882;151.134;2023-04-03T08:47:22;7.75;;;1.45;;
16391;SDS011;8305;-33.882;151.134;2023-04-03T08:49:57;4.80;;;1.50;;
16391;SDS011;8305;-33.882;151.134;2023-04-03T08:52:35;5.18;;;1.38;;
16391;SDS011;8305;-33.882;151.134;2023-04-03T08:55:12;7.00;;;1.42;;
16391;SDS011;8305;-33.882;151.134;2023-04-03T08:57:49;7.50;;;1.73;;
16391;SDS011;8305;-33.882;151.134;2023-04-03T09:00:28;7.07;;;1.77;;
16391;SDS011;8305;-33.882;151.134;2023-04-03T09:03:03;4.47;;;1.27;;
16391;SDS011;8305;-33.882;151.134;2023-04-03T09:05:41;8.25;;;1.48;;
16391;SDS011;8305;-33.882;151.134;2023-04-03T09:08:23;11.25;;;1.13;;
16391;SDS011;8305;-33.882;151.134;2023-04-03T09:11:03;4.13;;;1.40;;
16391;SDS011;8305;-33.882;151.134;2023-04-03T09:13:41;6.03;;;1.42;;
16391;SDS011;8305;-33.882;151.134;2023-04-03T09:16:25;7.68;;;1.17;;
16391;SDS011;8305;-33.882;151.134;2023-04-03T09:19:06;5.93;;;1.50;;
16391;SDS011;8305;-33.882;151.134;2023-04-03T09:21:45;11.02;;;1.20;;
16391;SDS011;8305;-33.882;151.134;2023-04-03T09:24:18;6.15;;;1.00;;
16391;SDS011;8305;-33.882;151.134;2023-04-03T09:26:53;6.03;;;0.95;;
16391;SDS011;8305;-33.882;151.134;2023-04-03T09:29:29;4.05;;;0.90;;
16391;SDS011;8305;-33.882;151.134;2023-04-03T09:32:19;3.47;;;0.80;;
16391;SDS011;8305;-33.882;151.134;2023-04-03T09:34:56;5.70;;;1.00;;
16391;SDS011;8305;-33.882;151.134;2023-04-03T09:37:35;7.07;;;1.13;;
16391;SDS011;8305;-33.882;151.134;2023-04-03T09:43:21;4.68;;;1.02;;
16391;SDS011;8305;-33.882;151.134;2023-04-03T09:45:54;6.85;;;1.17;;
16391;SDS011;8305;-33.882;151.134;2023-04-03T09:48:50;5.65;;;1.05;;
16391;SDS011;8305;-33.882;151.134;2023-04-03T09:51:25;7.68;;;1.60;;
16391;SDS011;8305;-33.882;151.134;2023-04-03T09:53:57;10.55;;;1.55;;
16391;SDS011;8305;-33.882;151.134;2023-04-03T09:56:30;5.90;;;1.40;;
16391;SDS011;8305;-33.882;151.134;2023-04-03T09:59:12;8.07;;;1.33;;
16391;SDS011;8305;-33.882;151.134;2023-04-03T10:01:55;8.10;;;1.25;;
16391;SDS011;8305;-33.882;151.134;2023-04-03T10:04:36;3.75;;;0.75;;
16391;SDS011;8305;-33.882;151.134;2023-04-03T10:07:26;4.00;;;0.85;;
16391;SDS011;8305;-33.882;151.134;2023-04-03T10:09:59;3.70;;;0.70;;
16391;SDS011;8305;-33.882;151.134;2023-04-03T10:12:33;3.85;;;0.90;;
16391;SDS011;8305;-33.882;151.134;2023-04-03T10:15:11;6.75;;;0.90;;
16391;SDS011;8305;-33.882;151.134;2023-04-03T10:17:49;6.00;;;1.05;;
16391;SDS011;8305;-33.882;151.134;2023-04-03T10:20:27;5.40;;;0.77;;
16391;SDS011;8305;-33.882;151.134;2023-04-03T10:23:15;3.13;;;0.70;;
16391;SDS011;8305;-33.882;151.134;2023-04-03T10:25:50;3.92;;;0.85;;
16391;SDS011;8305;-33.882;151.134;2023-04-03T10:28:32;7.25;;;0.90;;
16391;SDS011;8305;-33.882;151.134;2023-04-03T10:31:13;6.47;;;0.82;;
16391;SDS011;8305;-33.882;151.134;2023-04-03T10:33:53;6.28;;;1.00;;
16391;SDS011;8305;-33.882;151.134;2023-04-03T10:36:37;3.67;;;0.95;;
16391;SDS011;8305;-33.882;151.134;2023-04-03T10:39:15;4.55;;;1.00;;
16391;SDS011;8305;-33.882;151.134;2023-04-03T10:41:58;2.67;;;0.70;;
16391;SDS011;8305;-33.882;151.134;2023-04-03T10:44:39;3.97;;;0.90;;
16391;SDS011;8305;-33.882;151.134;2023-04-03T10:47:34;7.70;;;1.10;;
16391;SDS011;8305;-33.882;151.134;2023-04-03T10:50:20;5.95;;;0.90;;
16391;SDS011;8305;-33.882;151.134;2023-04-03T10:53:00;4.05;;;0.80;;
16391;SDS011;8305;-33.882;151.134;2023-04-03T10:55:37;3.65;;;0.75;;
16391;SDS011;8305;-33.882;151.134;2023-04-03T10:58:17;4.50;;;0.70;;
16391;SDS011;8305;-33.882;151.134;2023-04-03T11:00:52;2.75;;;0.60;;
16391;SDS011;8305;-33.882;151.134;2023-04-03T11:03:30;5.25;;;0.93;;
16391;SDS011;8305;-33.882;151.134;2023-04-03T11:06:07;4.03;;;0.90;;
16391;SDS011;8305;-33.882;151.134;2023-04-03T11:08:44;1.17;;;0.55;;
16391;SDS011;8305;-33.882;151.134;2023-04-03T11:11:24;5.90;;;0.98;;
16391;SDS011;8305;-33.882;151.134;2023-04-03T11:14:00;4.07;;;1.00;;
16391;SDS011;8305;-33.882;151.134;2023-04-03T11:16:36;3.53;;;0.90;;
16391;SDS011;8305;-33.882;151.134;2023-04-03T11:19:13;6.40;;;0.90;;
16391;SDS011;8305;-33.882;151.134;2023-04-03T11:21:51;4.57;;;0.80;;
16391;SDS011;8305;-33.882;151.134;2023-04-03T11:24:27;4.10;;;0.85;;
16391;SDS011;8305;-33.882;151.134;2023-04-03T11:27:00;5.05;;;1.20;;
16391;SDS011;8305;-33.882;151.134;2023-04-03T11:29:34;4.85;;;0.88;;
16391;SDS011;8305;-33.882;151.134;2023-04-03T11:32:16;3.17;;;1.10;;
16391;SDS011;8305;-33.882;151.134;2023-04-03T11:35:04;5.90;;;0.90;;
16391;SDS011;8305;-33.882;151.134;2023-04-03T11:37:38;5.35;;;1.30;;
16391;SDS011;8305;-33.882;151.134;2023-04-03T11:40:18;3.15;;;0.85;;
16391;SDS011;8305;-33.882;151.134;2023-04-03T11:43:02;3.10;;;0.98;;
16391;SDS011;8305;-33.882;151.134;2023-04-03T11:45:50;3.67;;;0.70;;
16391;SDS011;8305;-33.882;151.134;2023-04-03T11:51:41;3.17;;;0.77;;
16391;SDS011;8305;-33.882;151.134;2023-04-03T12:03:35;3.15;;;1.00;;
16391;SDS011;8305;-33.882;151.134;2023-04-03T12:12:34;4.40;;;1.50;;
16391;SDS011;8305;-33.882;151.134;2023-04-03T12:24:31;4.63;;;1.30;;
16391;SDS011;8305;-33.882;151.134;2023-04-03T12:27:09;6.95;;;1.40;;
16391;SDS011;8305;-33.882;151.134;2023-04-03T12:29:53;3.50;;;1.20;;
16391;SDS011;8305;-33.882;151.134;2023-04-03T12:35:47;5.53;;;1.33;;
16391;SDS011;8305;-33.882;151.134;2023-04-03T12:38:35;3.97;;;1.23;;
16391;SDS011;8305;-33.882;151.134;2023-04-03T12:41:36;6.05;;;1.20;;
16391;SDS011;8305;-33.882;151.134;2023-04-03T12:44:18;6.15;;;1.15;;
16391;SDS011;8305;-33.882;151.134;2023-04-03T12:47:00;5.85;;;1.30;;
16391;SDS011;8305;-33.882;151.134;2023-04-03T12:49:52;3.42;;;1.20;;
16391;SDS011;8305;-33.882;151.134;2023-04-03T12:52:29;4.68;;;1.30;;
16391;SDS011;8305;-33.882;151.134;2023-04-03T12:55:14;3.83;;;1.08;;
16391;SDS011;8305;-33.882;151.134;2023-04-03T12:57:48;5.00;;;1.30;;
16391;SDS011;8305;-33.882;151.134;2023-04-03T13:00:20;5.18;;;1.20;;
16391;SDS011;8305;-33.882;151.134;2023-04-03T13:02:58;5.97;;;1.38;;
16391;SDS011;8305;-33.882;151.134;2023-04-03T13:05:30;6.85;;;1.38;;
16391;SDS011;8305;-33.882;151.134;2023-04-03T13:08:03;5.55;;;1.40;;
16391;SDS011;8305;-33.882;151.134;2023-04-03T13:10:43;3.75;;;0.95;;
16391;SDS011;8305;-33.882;151.134;2023-04-03T13:13:23;6.68;;;1.70;;
16391;SDS011;8305;-33.882;151.134;2023-04-03T13:15:55;3.35;;;1.23;;
16391;SDS011;8305;-33.882;151.134;2023-04-03T13:18:27;4.45;;;1.30;;
16391;SDS011;8305;-33.882;151.134;2023-04-03T13:21:01;4.80;;;1.35;;
16391;SDS011;8305;-33.882;151.134;2023-04-03T13:23:35;5.57;;;1.30;;
16391;SDS011;8305;-33.882;151.134;2023-04-03T13:26:09;3.83;;;1.40;;
16391;SDS011;8305;-33.882;151.134;2023-04-03T13:28:42;4.65;;;1.17;;
16391;SDS011;8305;-33.882;151.134;2023-04-03T13:31:20;4.07;;;1.20;;
16391;SDS011;8305;-33.882;151.134;2023-04-03T13:33:55;4.63;;;1.30;;
16391;SDS011;8305;-33.882;151.134;2023-04-03T13:36:30;4.40;;;1.50;;
16391;SDS011;8305;-33.882;151.134;2023-04-03T13:39:03;5.07;;;1.92;;
16391;SDS011;8305;-33.882;151.134;2023-04-03T13:41:37;9.10;;;2.20;;
16391;SDS011;8305;-33.882;151.134;2023-04-03T13:44:18;7.72;;;2.28;;
16391;SDS011;8305;-33.882;151.134;2023-04-03T13:47:14;8.30;;;2.25;;
16391;SDS011;8305;-33.882;151.134;2023-04-03T13:49:59;4.80;;;1.77;;
16391;SDS011;8305;-33.882;151.134;2023-04-03T13:52:33;5.55;;;1.80;;
16391;SDS011;8305;-33.882;151.134;2023-04-03T13:55:15;9.02;;;1.92;;
16391;SDS011;8305;-33.882;151.134;2023-04-03T13:57:50;6.03;;;1.60;;
16391;SDS011;8305;-33.882;151.134;2023-04-03T14:00:36;6.00;;;1.83;;
16391;SDS011;8305;-33.882;151.134;2023-04-03T14:03:16;4.90;;;1.88;;
16391;SDS011;8305;-33.882;151.134;2023-04-03T14:05:53;4.18;;;1.52;;
16391;SDS011;8305;-33.882;151.134;2023-04-03T14:08:44;7.18;;;1.88;;
16391;SDS011;8305;-33.882;151.134;2023-04-03T14:11:16;7.40;;;1.92;;
16391;SDS011;8305;-33.882;151.134;2023-04-03T14:13:50;6.57;;;1.75;;
16391;SDS011;8305;-33.882;151.134;2023-04-03T14:16:26;6.25;;;2.08;;
16391;SDS011;8305;-33.882;151.134;2023-04-03T14:19:00;9.73;;;2.05;;
16391;SDS011;8305;-33.882;151.134;2023-04-03T14:21:31;5.30;;;1.90;;
16391;SDS011;8305;-33.882;151.134;2023-04-03T14:24:03;5.82;;;1.85;;
16391;SDS011;8305;-33.882;151.134;2023-04-03T14:26:34;3.17;;;1.63;;
16391;SDS011;8305;-33.882;151.134;2023-04-03T14:29:05;6.93;;;1.70;;
16391;SDS011;8305;-33.882;151.134;2023-04-03T14:31:41;6.50;;;1.52;;
16391;SDS011;8305;-33.882;151.134;2023-04-03T14:34:13;7.75;;;1.77;;
16391;SDS011;8305;-33.882;151.134;2023-04-03T14:36:44;4.82;;;1.98;;
16391;SDS011;8305;-33.882;151.134;2023-04-03T14:39:16;8.30;;;2.40;;
16391;SDS011;8305;-33.882;151.134;2023-04-03T14:41:47;8.35;;;2.45;;
16391;SDS011;8305;-33.882;151.134;2023-04-03T14:44:18;7.13;;;2.45;;
16391;SDS011;8305;-33.882;151.134;2023-04-03T14:46:51;5.95;;;2.28;;
16391;SDS011;8305;-33.882;151.134;2023-04-03T14:49:24;5.93;;;2.10;;
16391;SDS011;8305;-33.882;151.134;2023-04-03T14:51:56;7.72;;;2.40;;
16391;SDS011;8305;-33.882;151.134;2023-04-03T14:54:30;4.95;;;2.00;;
16391;SDS011;8305;-33.882;151.134;2023-04-03T14:57:02;6.30;;;2.40;;
16391;SDS011;8305;-33.882;151.134;2023-04-03T14:59:38;5.15;;;2.13;;
16391;SDS011;8305;-33.882;151.134;2023-04-03T15:05:00;5.25;;;2.38;;
16391;SDS011;8305;-33.882;151.134;2023-04-03T15:07:32;7.60;;;2.30;;
16391;SDS011;8305;-33.882;151.134;2023-04-03T15:10:14;5.63;;;2.67;;
16391;SDS011;8305;-33.882;151.134;2023-04-03T15:12:47;7.85;;;2.08;;
16391;SDS011;8305;-33.882;151.134;2023-04-03T15:15:19;7.35;;;2.28;;
16391;SDS011;8305;-33.882;151.134;2023-04-03T15:17:53;5.57;;;2.13;;
16391;SDS011;8305;-33.882;151.134;2023-04-03T15:20:25;9.13;;;2.63;;
16391;SDS011;8305;-33.882;151.134;2023-04-03T15:22:57;8.57;;;2.30;;
16391;SDS011;8305;-33.882;151.134;2023-04-03T15:25:29;5.35;;;2.25;;
16391;SDS011;8305;-33.882;151.134;2023-04-03T15:28:00;10.60;;;2.40;;
16391;SDS011;8305;-33.882;151.134;2023-04-03T15:30:31;7.50;;;2.20;;
16391;SDS011;8305;-33.882;151.134;2023-04-03T15:33:07;5.60;;;2.22;;
16391;SDS011;8305;-33.882;151.134;2023-04-03T15:35:38;5.05;;;2.10;;
16391;SDS011;8305;-33.882;151.134;2023-04-03T15:38:09;11.85;;;2.92;;
16391;SDS011;8305;-33.882;151.134;2023-04-03T15:40:40;6.78;;;2.42;;
16391;SDS011;8305;-33.882;151.134;2023-04-03T15:43:13;4.82;;;2.28;;
16391;SDS011;8305;-33.882;151.134;2023-04-03T15:45:44;8.38;;;2.45;;